Terminal Aerodrome Forecast
Issued by NWS Wakefield, VA

Home | Current Version | Previous Version | Text Only | Print | Product List | Glossary On
Versions: 1 2 3 4 5 6 7 8 9 10 11 12 13 14 15 16 17 18 19 20
000
FTUS41 KAKQ 022000 AAA
TAFRIC
TAF AMD
KRIC 022017Z 0220/0318 02008KT P6SM FEW040 BKN250
     FM030000 04004KT P6SM SCT250
     FM030600 VRB03KT P6SM SCT120 BKN250
     FM031500 17006KT P6SM BKN040 OVC090=

USA.gov is the U.S. government's official web portal to all federal, state and local government web resources and services.